sensor_id;sensor_type;location;lat;lon;timestamp;temperature;humidity
34472;DHT22;20710;49.976;19.836;2022-10-04T00:01:11;11.16;87.81
34472;DHT22;20710;49.976;19.836;2022-10-04T00:07:17;11.15;87.87
34472;DHT22;20710;49.976;19.836;2022-10-04T00:13:23;11.15;87.67
34472;DHT22;20710;49.976;19.836;2022-10-04T00:19:44;11.15;87.72
34472;DHT22;20710;49.976;19.836;2022-10-04T00:25:48;11.16;87.96
34472;DHT22;20710;49.976;19.836;2022-10-04T00:38:16;11.16;88.16
34472;DHT22;20710;49.976;19.836;2022-10-04T00:50:53;11.15;88.13
34472;DHT22;20710;49.976;19.836;2022-10-04T00:57:02;11.15;88.11
34472;DHT22;20710;49.976;19.836;2022-10-04T01:03:20;11.13;88.02
34472;DHT22;20710;49.976;19.836;2022-10-04T01:09:21;11.16;88.20
34472;DHT22;20710;49.976;19.836;2022-10-04T01:28:36;11.12;88.32
34472;DHT22;20710;49.976;19.836;2022-10-04T01:34:39;11.12;88.27
34472;DHT22;20710;49.976;19.836;2022-10-04T01:40:49;11.12;88.51
34472;DHT22;20710;49.976;19.836;2022-10-04T01:46:51;11.10;88.46
34472;DHT22;20710;49.976;19.836;2022-10-04T01:59:24;11.08;88.27
34472;DHT22;20710;49.976;19.836;2022-10-04T02:05:32;11.10;88.32
34472;DHT22;20710;49.976;19.836;2022-10-04T02:11:33;11.06;88.26
34472;DHT22;20710;49.976;19.836;2022-10-04T02:17:40;11.08;88.35
34472;DHT22;20710;49.976;19.836;2022-10-04T02:23:43;11.09;88.52
34472;DHT22;20710;49.976;19.836;2022-10-04T02:29:45;11.03;88.41
34472;DHT22;20710;49.976;19.836;2022-10-04T02:35:47;10.99;88.29
34472;DHT22;20710;49.976;19.836;2022-10-04T02:41:59;10.95;88.27
34472;DHT22;20710;49.976;19.836;2022-10-04T02:54:48;10.84;88.18
34472;DHT22;20710;49.976;19.836;2022-10-04T03:00:51;10.75;88.22
34472;DHT22;20710;49.976;19.836;2022-10-04T03:06:55;10.72;88.17
34472;DHT22;20710;49.976;19.836;2022-10-04T03:12:58;10.74;88.36
34472;DHT22;20710;49.976;19.836;2022-10-04T03:18:59;10.75;88.40
34472;DHT22;20710;49.976;19.836;2022-10-04T03:25:01;10.74;88.47
34472;DHT22;20710;49.976;19.836;2022-10-04T03:31:04;10.72;88.42
34472;DHT22;20710;49.976;19.836;2022-10-04T03:37:11;10.71;88.44
34472;DHT22;20710;49.976;19.836;2022-10-04T03:43:13;10.71;88.51
34472;DHT22;20710;49.976;19.836;2022-10-04T03:49:22;10.72;88.55
34472;DHT22;20710;49.976;19.836;2022-10-04T03:55:33;10.64;88.47
34472;DHT22;20710;49.976;19.836;2022-10-04T04:02:14;10.63;88.49
34472;DHT22;20710;49.976;19.836;2022-10-04T04:08:34;10.60;88.43
34472;DHT22;20710;49.976;19.836;2022-10-04T04:14:38;10.60;88.34
34472;DHT22;20710;49.976;19.836;2022-10-04T04:20:42;10.59;88.45
34472;DHT22;20710;49.976;19.836;2022-10-04T04:26:48;10.59;88.48
34472;DHT22;20710;49.976;19.836;2022-10-04T04:32:54;10.60;88.51
34472;DHT22;20710;49.976;19.836;2022-10-04T04:39:21;10.64;88.57
34472;DHT22;20710;49.976;19.836;2022-10-04T04:45:40;10.65;88.49
34472;DHT22;20710;49.976;19.836;2022-10-04T04:51:49;10.64;88.49
34472;DHT22;20710;49.976;19.836;2022-10-04T04:57:55;10.68;88.59
34472;DHT22;20710;49.976;19.836;2022-10-04T05:10:30;10.74;88.44
34472;DHT22;20710;49.976;19.836;2022-10-04T05:16:52;10.78;88.46
34472;DHT22;20710;49.976;19.836;2022-10-04T05:22:55;10.81;88.67
34472;DHT22;20710;49.976;19.836;2022-10-04T05:29:08;10.87;88.62
34472;DHT22;20710;49.976;19.836;2022-10-04T05:35:19;10.92;88.81
34472;DHT22;20710;49.976;19.836;2022-10-04T05:47:59;11.05;88.74
34472;DHT22;20710;49.976;19.836;2022-10-04T05:54:03;11.10;88.62
34472;DHT22;20710;49.976;19.836;2022-10-04T06:00:21;11.13;88.26
34472;DHT22;20710;49.976;19.836;2022-10-04T06:06:46;11.17;88.36
34472;DHT22;20710;49.976;19.836;2022-10-04T06:13:16;11.23;88.48
34472;DHT22;20710;49.976;19.836;2022-10-04T06:19:58;11.25;88.43
34472;DHT22;20710;49.976;19.836;2022-10-04T06:26:08;11.34;88.30
34472;DHT22;20710;49.976;19.836;2022-10-04T06:45:37;11.62;88.18
34472;DHT22;20710;49.976;19.836;2022-10-04T06:52:08;11.71;88.06
34472;DHT22;20710;49.976;19.836;2022-10-04T06:58:45;11.77;87.68
34472;DHT22;20710;49.976;19.836;2022-10-04T07:11:54;11.88;87.01
34472;DHT22;20710;49.976;19.836;2022-10-04T07:17:55;11.93;86.63
34472;DHT22;20710;49.976;19.836;2022-10-04T07:24:00;12.02;86.42
34472;DHT22;20710;49.976;19.836;2022-10-04T07:30:12;12.05;86.02
34472;DHT22;20710;49.976;19.836;2022-10-04T07:37:16;12.17;85.92
34472;DHT22;20710;49.976;19.836;2022-10-04T07:42:44;12.20;85.50
34472;DHT22;20710;49.976;19.836;2022-10-04T07:48:44;12.20;85.28
34472;DHT22;20710;49.976;19.836;2022-10-04T07:55:17;12.22;84.90
34472;DHT22;20710;49.976;19.836;2022-10-04T08:01:58;12.26;84.77
34472;DHT22;20710;49.976;19.836;2022-10-04T08:15:28;12.37;84.30
34472;DHT22;20710;49.976;19.836;2022-10-04T08:21:34;12.37;84.30
34472;DHT22;20710;49.976;19.836;2022-10-04T08:35:33;12.51;83.84
34472;DHT22;20710;49.976;19.836;2022-10-04T09:15:02;12.82;82.43
34472;DHT22;20710;49.976;19.836;2022-10-04T09:35:05;13.03;82.19
34472;DHT22;20710;49.976;19.836;2022-10-04T09:41:33;13.09;82.14
34472;DHT22;20710;49.976;19.836;2022-10-04T09:48:08;13.10;82.06
34472;DHT22;20710;49.976;19.836;2022-10-04T09:54:47;13.34;81.94
34472;DHT22;20710;49.976;19.836;2022-10-04T10:14:05;14.06;81.12
34472;DHT22;20710;49.976;19.836;2022-10-04T10:27:37;14.32;78.99
34472;DHT22;20710;49.976;19.836;2022-10-04T10:47:18;14.37;78.41
34472;DHT22;20710;49.976;19.836;2022-10-04T11:00:18;14.62;77.94
34472;DHT22;20710;49.976;19.836;2022-10-04T11:14:09;15.33;76.34
34472;DHT22;20710;49.976;19.836;2022-10-04T11:27:12;15.56;74.56
34472;DHT22;20710;49.976;19.836;2022-10-04T11:33:45;15.79;74.29
34472;DHT22;20710;49.976;19.836;2022-10-04T11:46:47;15.39;72.10
34472;DHT22;20710;49.976;19.836;2022-10-04T11:59:35;15.02;73.95
34472;DHT22;20710;49.976;19.836;2022-10-04T12:12:13;14.87;72.83
34472;DHT22;20710;49.976;19.836;2022-10-04T12:32:34;15.18;72.29
34472;DHT22;20710;49.976;19.836;2022-10-04T12:57:59;15.15;71.35
34472;DHT22;20710;49.976;19.836;2022-10-04T13:24:09;15.45;69.98
34472;DHT22;20710;49.976;19.836;2022-10-04T13:30:21;15.44;69.74
34472;DHT22;20710;49.976;19.836;2022-10-04T13:36:57;15.38;70.02
34472;DHT22;20710;49.976;19.836;2022-10-04T13:43:27;15.48;69.73
34472;DHT22;20710;49.976;19.836;2022-10-04T13:50:11;15.59;68.72
34472;DHT22;20710;49.976;19.836;2022-10-04T13:56:21;15.73;67.44
34472;DHT22;20710;49.976;19.836;2022-10-04T14:03:01;15.77;67.10
34472;DHT22;20710;49.976;19.836;2022-10-04T14:10:01;15.76;67.00
34472;DHT22;20710;49.976;19.836;2022-10-04T14:35:33;15.34;65.78
34472;DHT22;20710;49.976;19.836;2022-10-04T14:54:54;15.02;66.48
34472;DHT22;20710;49.976;19.836;2022-10-04T15:07:33;14.89;65.88
34472;DHT22;20710;49.976;19.836;2022-10-04T15:13:52;14.76;65.38
34472;DHT22;20710;49.976;19.836;2022-10-04T15:52:50;13.79;68.26
34472;DHT22;20710;49.976;19.836;2022-10-04T15:59:40;13.59;68.35
34472;DHT22;20710;49.976;19.836;2022-10-04T16:06:09;13.41;68.64
34472;DHT22;20710;49.976;19.836;2022-10-04T16:12:51;13.29;68.78
34472;DHT22;20710;49.976;19.836;2022-10-04T16:19:09;13.13;69.10
34472;DHT22;20710;49.976;19.836;2022-10-04T16:25:37;12.91;69.87
34472;DHT22;20710;49.976;19.836;2022-10-04T16:31:49;12.69;70.52
34472;DHT22;20710;49.976;19.836;2022-10-04T16:38:22;12.50;71.35
34472;DHT22;20710;49.976;19.836;2022-10-04T16:44:45;12.20;72.42
34472;DHT22;20710;49.976;19.836;2022-10-04T16:51:20;11.93;73.30
34472;DHT22;20710;49.976;19.836;2022-10-04T16:57:21;11.65;73.68
34472;DHT22;20710;49.976;19.836;2022-10-04T17:03:29;11.43;74.29
34472;DHT22;20710;49.976;19.836;2022-10-04T17:09:53;11.22;74.89
34472;DHT22;20710;49.976;19.836;2022-10-04T17:16:13;10.98;75.45
34472;DHT22;20710;49.976;19.836;2022-10-04T18:02:43;9.94;78.40
34472;DHT22;20710;49.976;19.836;2022-10-04T18:08:06;9.83;78.64
34472;DHT22;20710;49.976;19.836;2022-10-04T18:27:01;9.53;79.20
34472;DHT22;20710;49.976;19.836;2022-10-04T18:33:18;9.47;79.77
34472;DHT22;20710;49.976;19.836;2022-10-04T18:39:20;9.35;79.87
34472;DHT22;20710;49.976;19.836;2022-10-04T18:45:27;9.23;80.10
34472;DHT22;20710;49.976;19.836;2022-10-04T18:51:53;9.11;80.33
34472;DHT22;20710;49.976;19.836;2022-10-04T19:37:36;8.56;81.50
34472;DHT22;20710;49.976;19.836;2022-10-04T19:44:04;8.50;81.39
34472;DHT22;20710;49.976;19.836;2022-10-04T19:56:37;8.38;81.65
34472;DHT22;20710;49.976;19.836;2022-10-04T20:02:42;8.33;81.73
34472;DHT22;20710;49.976;19.836;2022-10-04T20:08:57;8.38;82.39
34472;DHT22;20710;49.976;19.836;2022-10-04T20:15:40;8.31;82.24
34472;DHT22;20710;49.976;19.836;2022-10-04T20:21:28;8.18;82.14
34472;DHT22;20710;49.976;19.836;2022-10-04T20:33:46;8.24;82.77
34472;DHT22;20710;49.976;19.836;2022-10-04T20:39:55;8.15;82.54
34472;DHT22;20710;49.976;19.836;2022-10-04T20:45:55;8.10;82.30
34472;DHT22;20710;49.976;19.836;2022-10-04T20:51:58;8.01;82.33
34472;DHT22;20710;49.976;19.836;2022-10-04T20:58:19;7.90;82.42
34472;DHT22;20710;49.976;19.836;2022-10-04T21:04:25;7.77;82.37
34472;DHT22;20710;49.976;19.836;2022-10-04T21:10:34;7.67;82.71
34472;DHT22;20710;49.976;19.836;2022-10-04T21:16:48;7.66;82.91
34472;DHT22;20710;49.976;19.836;2022-10-04T21:23:06;7.73;83.34
34472;DHT22;20710;49.976;19.836;2022-10-04T21:29:08;7.79;83.09
34472;DHT22;20710;49.976;19.836;2022-10-04T21:35:12;7.87;83.42
34472;DHT22;20710;49.976;19.836;2022-10-04T21:41:13;7.87;83.53
34472;DHT22;20710;49.976;19.836;2022-10-04T21:47:15;7.87;83.47
34472;DHT22;20710;49.976;19.836;2022-10-04T21:53:19;7.87;83.70
34472;DHT22;20710;49.976;19.836;2022-10-04T21:59:25;7.90;83.85
34472;DHT22;20710;49.976;19.836;2022-10-04T22:05:27;7.79;83.71
34472;DHT22;20710;49.976;19.836;2022-10-04T22:11:31;7.69;83.83
34472;DHT22;20710;49.976;19.836;2022-10-04T22:17:32;7.63;83.69
34472;DHT22;20710;49.976;19.836;2022-10-04T22:23:42;7.55;83.51
34472;DHT22;20710;49.976;19.836;2022-10-04T22:29:44;7.50;83.67
34472;DHT22;20710;49.976;19.836;2022-10-04T22:35:46;7.45;83.71
34472;DHT22;20710;49.976;19.836;2022-10-04T22:41:54;7.42;83.82
34472;DHT22;20710;49.976;19.836;2022-10-04T22:47:59;7.35;83.83
34472;DHT22;20710;49.976;19.836;2022-10-04T22:54:01;7.21;83.57
34472;DHT22;20710;49.976;19.836;2022-10-04T23:00:05;7.17;83.78
34472;DHT22;20710;49.976;19.836;2022-10-04T23:06:06;7.08;83.72
34472;DHT22;20710;49.976;19.836;2022-10-04T23:12:11;7.06;83.66
34472;DHT22;20710;49.976;19.836;2022-10-04T23:18:18;7.07;84.12
34472;DHT22;20710;49.976;19.836;2022-10-04T23:24:22;7.11;84.27
34472;DHT22;20710;49.976;19.836;2022-10-04T23:30:23;6.99;83.99
34472;DHT22;20710;49.976;19.836;2022-10-04T23:36:24;6.96;83.66
34472;DHT22;20710;49.976;19.836;2022-10-04T23:42:28;6.80;83.38
34472;DHT22;20710;49.976;19.836;2022-10-04T23:48:32;6.75;83.59
34472;DHT22;20710;49.976;19.836;2022-10-04T23:54:35;6.71;83.71
